Time,TemperatureF,DewpointF,PressureIn,WindDirection,WindDirectionDegrees,WindSpeedMPH,WindSpeedGustMPH,Humidity,HourlyPrecipIn,Conditions,Clouds,dailyrainin,SoftwareType,DateUTC
2013-08-06 00:05:00,75.1,69.6,29.98,East,88,4.0,8.0,83,0.00,,,0.00,Wunderground v.1.15,2013-08-06 10:05:00,
2013-08-06 00:15:00,74.9,69.4,29.98,ESE,106,3.0,5.0,83,0.00,,,0.00,Wunderground v.1.15,2013-08-06 10:15:00,
2013-08-06 00:25:00,75.1,69.6,29.98,East,79,4.0,6.0,83,0.00,,,0.00,Wunderground v.1.15,2013-08-06 10:25:00,
2013-08-06 00:35:00,75.1,69.6,29.97,East,98,4.0,5.0,83,0.00,,,0.00,Wunderground v.1.15,2013-08-06 10:35:00,
2013-08-06 00:45:00,75.1,69.6,29.97,ESE,113,3.0,7.0,83,0.00,,,0.00,Wunderground v.1.15,2013-08-06 10:45:00,
2013-08-06 00:55:00,75.2,69.3,29.97,East,80,4.0,4.0,82,0.00,,,0.00,Wunderground v.1.15,2013-08-06 10:55:00,
2013-08-06 01:05:00,75.2,69.3,29.97,East,94,4.0,5.0,82,0.00,,,0.00,Wunderground v.1.15,2013-08-06 11:05:00,
2013-08-06 01:15:00,75.1,69.2,29.96,ESE,102,4.0,5.0,82,0.00,,,0.00,Wunderground v.1.15,2013-08-06 11:15:00,
2013-08-06 01:25:00,75.1,68.9,29.96,East,101,4.0,4.0,81,0.00,,,0.00,Wunderground v.1.15,2013-08-06 11:25:00,
2013-08-06 01:35:00,75.0,69.1,29.95,East,88,3.0,4.0,82,0.00,,,0.00,Wunderground v.1.15,2013-08-06 11:35:00,
2013-08-06 01:45:00,74.8,68.9,29.95,ESE,111,3.0,10.0,82,0.00,,,0.00,Wunderground v.1.15,2013-08-06 11:45:00,
2013-08-06 01:55:00,74.9,68.7,29.95,ENE,70,5.0,5.0,81,0.00,,,0.00,Wunderground v.1.15,2013-08-06 11:55:00,
2013-08-06 02:00:00,75.0,68.8,29.95,East,86,4.0,4.0,81,0.00,,,0.00,Wunderground v.1.15,2013-08-06 12:00:00,
2013-08-06 02:05:00,74.8,68.6,29.95,ENE,71,4.0,4.0,81,0.00,,,0.00,Wunderground v.1.15,2013-08-06 12:05:00,
2013-08-06 02:15:00,74.9,69.0,29.94,East,93,4.0,5.0,82,0.00,,,0.00,Wunderground v.1.15,2013-08-06 12:15:00,
2013-08-06 02:20:00,75.1,68.9,29.94,ENE,71,5.0,5.0,81,0.00,,,0.00,Wunderground v.1.15,2013-08-06 12:20:00,
2013-08-06 02:30:00,74.9,69.0,29.94,East,98,3.0,6.0,82,0.00,,,0.00,Wunderground v.1.15,2013-08-06 12:30:00,
2013-08-06 02:40:00,74.9,69.0,29.94,ENE,66,5.0,5.0,82,0.00,,,0.00,Wunderground v.1.15,2013-08-06 12:40:00,
2013-08-06 02:50:00,74.9,69.0,29.94,East,95,4.0,5.0,82,0.00,,,0.00,Wunderground v.1.15,2013-08-06 12:50:00,
2013-08-06 03:00:00,74.7,68.8,29.94,East,86,3.0,4.0,82,0.00,,,0.00,Wunderground v.1.15,2013-08-06 13:00:00,
2013-08-06 03:05:00,74.7,68.8,29.94,ESE,105,4.0,4.0,82,0.00,,,0.00,Wunderground v.1.15,2013-08-06 13:05:00,
2013-08-06 03:15:00,74.9,69.0,29.94,East,82,5.0,6.0,82,0.00,,,0.00,Wunderground v.1.15,2013-08-06 13:15:00,
2013-08-06 03:25:00,74.9,69.0,29.93,ENE,64,5.0,5.0,82,0.00,,,0.00,Wunderground v.1.15,2013-08-06 13:25:00,
2013-08-06 03:30:00,74.9,69.0,29.93,NE,53,4.0,4.0,82,0.00,,,0.00,Wunderground v.1.15,2013-08-06 13:30:00,
2013-08-06 03:40:00,74.8,69.3,29.93,ENE,72,4.0,4.0,83,0.00,,,0.00,Wunderground v.1.15,2013-08-06 13:40:00,
2013-08-06 03:50:00,74.5,69.0,29.93,East,99,3.0,4.0,83,0.00,,,0.00,Wunderground v.1.15,2013-08-06 13:50:00,
2013-08-06 04:00:00,74.7,68.8,29.93,East,87,4.0,4.0,82,0.00,,,0.00,Wunderground v.1.15,2013-08-06 14:00:00,
2013-08-06 04:05:00,74.6,68.7,29.93,ESE,115,4.0,7.0,82,0.00,,,0.00,Wunderground v.1.15,2013-08-06 14:05:00,
2013-08-06 04:15:00,74.7,68.8,29.93,East,86,5.0,6.0,82,0.00,,,0.00,Wunderground v.1.15,2013-08-06 14:15:00,
2013-08-06 04:20:00,74.7,68.8,29.94,ESE,103,5.0,9.0,82,0.00,,,0.00,Wunderground v.1.15,2013-08-06 14:20:00,
2013-08-06 04:30:00,74.8,68.6,29.93,ENE,70,6.0,6.0,81,0.00,,,0.00,Wunderground v.1.15,2013-08-06 14:30:00,
2013-08-06 04:40:00,74.7,68.5,29.93,ENE,69,4.0,4.0,81,0.00,,,0.00,Wunderground v.1.15,2013-08-06 14:40:00,
2013-08-06 04:50:00,74.6,68.4,29.94,East,101,4.0,7.0,81,0.00,,,0.00,Wunderground v.1.15,2013-08-06 14:50:00,
2013-08-06 05:00:00,74.8,68.2,29.94,ESE,105,6.0,9.0,80,0.00,,,0.00,Wunderground v.1.15,2013-08-06 15:00:00,
2013-08-06 05:05:00,74.6,68.4,29.94,ENE,76,6.0,9.0,81,0.00,,,0.00,Wunderground v.1.15,2013-08-06 15:05:00,
2013-08-06 05:15:00,74.6,68.0,29.94,East,88,6.0,6.0,80,0.00,,,0.00,Wunderground v.1.15,2013-08-06 15:15:00,
2013-08-06 05:20:00,74.6,68.0,29.95,East,99,5.0,5.0,80,0.00,,,0.00,Wunderground v.1.15,2013-08-06 15:20:00,
2013-08-06 05:30:00,74.5,67.9,29.95,ENE,68,4.0,4.0,80,0.00,,,0.00,Wunderground v.1.15,2013-08-06 15:30:00,
2013-08-06 05:40:00,74.4,67.8,29.95,ENE,69,3.0,3.0,80,0.00,,,0.00,Wunderground v.1.15,2013-08-06 15:40:00,
2013-08-06 05:50:00,74.2,68.0,29.96,East,98,3.0,7.0,81,0.00,,,0.00,Wunderground v.1.15,2013-08-06 15:50:00,
2013-08-06 06:00:00,74.3,67.7,29.96,East,93,4.0,4.0,80,0.00,,,0.00,Wunderground v.1.15,2013-08-06 16:00:00,
2013-08-06 06:05:00,74.4,67.8,29.96,East,98,4.0,4.0,80,0.00,,,0.00,Wunderground v.1.15,2013-08-06 16:05:00,
2013-08-06 06:15:00,74.2,67.6,29.97,ENE,72,3.0,4.0,80,0.00,,,0.00,Wunderground v.1.15,2013-08-06 16:15:00,
2013-08-06 06:25:00,74.0,67.8,29.97,ENE,70,2.0,4.0,81,0.00,,,0.00,Wunderground v.1.15,2013-08-06 16:25:00,
2013-08-06 06:35:00,74.2,67.6,29.97,East,98,3.0,4.0,80,0.00,,,0.00,Wunderground v.1.15,2013-08-06 16:35:00,
2013-08-06 06:45:00,75.0,68.0,29.97,ENE,65,4.0,7.0,79,0.00,,,0.00,Wunderground v.1.15,2013-08-06 16:45:00,
2013-08-06 06:50:00,75.3,68.3,29.97,ESE,105,4.0,4.0,79,0.00,,,0.00,Wunderground v.1.15,2013-08-06 16:50:00,
2013-08-06 07:00:00,75.6,68.3,29.98,East,101,2.0,2.0,78,0.00,,,0.00,Wunderground v.1.15,2013-08-06 17:00:00,
2013-08-06 07:05:00,75.5,67.8,29.98,East,92,3.0,5.0,77,0.00,,,0.00,Wunderground v.1.15,2013-08-06 17:05:00,
2013-08-06 07:15:00,75.8,67.7,29.98,East,90,4.0,4.0,76,0.00,,,0.00,Wunderground v.1.15,2013-08-06 17:15:00,
2013-08-06 07:25:00,76.7,68.6,29.98,ESE,105,5.0,5.0,76,0.00,,,0.00,Wunderground v.1.15,2013-08-06 17:25:00,
2013-08-06 07:30:00,77.1,68.6,29.99,ESE,108,4.0,8.0,75,0.00,,,0.00,Wunderground v.1.15,2013-08-06 17:30:00,
2013-08-06 07:40:00,77.3,69.1,29.99,East,85,4.0,4.0,76,0.00,,,0.00,Wunderground v.1.15,2013-08-06 17:40:00,
2013-08-06 07:50:00,76.7,68.6,29.99,East,82,3.0,4.0,76,0.00,,,0.00,Wunderground v.1.15,2013-08-06 17:50:00,
2013-08-06 07:55:00,76.5,68.7,29.99,ENE,78,4.0,5.0,77,0.00,,,0.00,Wunderground v.1.15,2013-08-06 17:55:00,
2013-08-06 08:05:00,76.5,68.4,29.98,East,99,6.0,8.0,76,0.00,,,0.00,Wunderground v.1.15,2013-08-06 18:05:00,
2013-08-06 08:15:00,77.2,69.0,29.99,East,88,4.0,8.0,76,0.00,,,0.00,Wunderground v.1.15,2013-08-06 18:15:00,
2013-08-06 08:25:00,77.6,69.0,29.99,East,91,4.0,11.0,75,0.00,,,0.00,Wunderground v.1.15,2013-08-06 18:25:00,
2013-08-06 08:35:00,78.6,69.6,29.99,ENE,74,4.0,7.0,74,0.00,,,0.00,Wunderground v.1.15,2013-08-06 18:35:00,
2013-08-06 08:45:00,78.5,69.1,30.00,ESE,106,5.0,7.0,73,0.00,,,0.00,Wunderground v.1.15,2013-08-06 18:45:00,
2013-08-06 08:55:00,78.5,69.1,29.99,ESE,105,3.0,4.0,73,0.00,,,0.00,Wunderground v.1.15,2013-08-06 18:55:00,
2013-08-06 09:05:00,78.6,69.2,30.00,ESE,104,5.0,5.0,73,0.00,,,0.00,Wunderground v.1.15,2013-08-06 19:05:00,
2013-08-06 09:15:00,78.9,69.5,30.00,ESE,116,4.0,4.0,73,0.00,,,0.00,Wunderground v.1.15,2013-08-06 19:15:00,
2013-08-06 09:25:00,80.0,69.7,30.00,ENE,69,4.0,8.0,71,0.00,,,0.00,Wunderground v.1.15,2013-08-06 19:25:00,
2013-08-06 09:30:00,80.2,69.1,30.00,ENE,71,5.0,9.0,69,0.00,,,0.00,Wunderground v.1.15,2013-08-06 19:30:00,
2013-08-06 09:40:00,80.2,69.1,30.00,East,96,6.0,6.0,69,0.00,,,0.00,Wunderground v.1.15,2013-08-06 19:40:00,
2013-08-06 09:50:00,80.7,70.0,30.00,ENE,78,4.0,4.0,70,0.00,,,0.00,Wunderground v.1.15,2013-08-06 19:50:00,
2013-08-06 10:00:00,80.8,68.4,30.00,ESE,110,5.0,5.0,66,0.00,,,0.00,Wunderground v.1.15,2013-08-06 20:00:00,
2013-08-06 10:05:00,81.6,69.1,30.00,East,97,5.0,5.0,66,0.00,,,0.00,Wunderground v.1.15,2013-08-06 20:05:00,
2013-08-06 10:15:00,81.7,68.8,30.00,ESE,109,4.0,10.0,65,0.00,,,0.00,Wunderground v.1.15,2013-08-06 20:15:00,
2013-08-06 10:25:00,81.2,69.6,30.00,ENE,67,5.0,11.0,68,0.00,,,0.00,Wunderground v.1.15,2013-08-06 20:25:00,
2013-08-06 10:35:00,80.9,69.3,30.00,East,95,5.0,6.0,68,0.00,,,0.00,Wunderground v.1.15,2013-08-06 20:35:00,
2013-08-06 10:45:00,81.8,70.2,30.00,ESE,103,4.0,11.0,68,0.00,,,0.00,Wunderground v.1.15,2013-08-06 20:45:00,
2013-08-06 10:50:00,81.3,68.9,30.00,ESE,102,5.0,6.0,66,0.00,,,0.00,Wunderground v.1.15,2013-08-06 20:50:00,
2013-08-06 11:00:00,81.5,69.0,30.00,East,95,6.0,6.0,66,0.00,,,0.00,Wunderground v.1.15,2013-08-06 21:00:00,
2013-08-06 11:05:00,81.6,69.1,30.00,East,98,5.0,9.0,66,0.00,,,0.00,Wunderground v.1.15,2013-08-06 21:05:00,
2013-08-06 11:15:00,81.4,69.8,30.00,East,98,5.0,11.0,68,0.00,,,0.00,Wunderground v.1.15,2013-08-06 21:15:00,
2013-08-06 11:25:00,81.8,69.3,29.99,SE,124,6.0,6.0,66,0.00,,,0.00,Wunderground v.1.15,2013-08-06 21:25:00,
2013-08-06 11:35:00,82.5,70.9,29.99,East,84,4.0,5.0,68,0.00,,,0.00,Wunderground v.1.15,2013-08-06 21:35:00,
2013-08-06 11:40:00,82.1,70.1,29.99,ENE,66,5.0,5.0,67,0.00,,,0.00,Wunderground v.1.15,2013-08-06 21:40:00,
2013-08-06 11:50:00,81.9,69.9,29.99,East,95,6.0,6.0,67,0.00,,,0.00,Wunderground v.1.15,2013-08-06 21:50:00,
2013-08-06 12:00:00,83.0,70.0,29.99,ENE,67,4.0,7.0,65,0.00,,,0.00,Wunderground v.1.15,2013-08-06 22:00:00,
2013-08-06 12:05:00,83.2,71.1,29.99,ENE,71,5.0,7.0,67,0.00,,,0.00,Wunderground v.1.15,2013-08-06 22:05:00,
2013-08-06 12:15:00,82.2,70.6,29.98,NE,40,6.0,7.0,68,0.00,,,0.00,Wunderground v.1.15,2013-08-06 22:15:00,
2013-08-06 12:20:00,82.2,69.7,29.98,NE,48,7.0,8.0,66,0.00,,,0.00,Wunderground v.1.15,2013-08-06 22:20:00,
2013-08-06 12:30:00,82.5,70.0,29.98,NE,44,5.0,7.0,66,0.00,,,0.00,Wunderground v.1.15,2013-08-06 22:30:00,
2013-08-06 12:40:00,81.7,70.1,29.98,East,84,6.0,6.0,68,0.00,,,0.00,Wunderground v.1.15,2013-08-06 22:40:00,
2013-08-06 12:45:00,81.6,69.6,29.98,ENE,65,7.0,9.0,67,0.00,,,0.00,Wunderground v.1.15,2013-08-06 22:45:00,
2013-08-06 12:50:00,81.6,70.4,29.97,East,82,7.0,9.0,69,0.00,,,0.00,Wunderground v.1.15,2013-08-06 22:50:00,
2013-08-06 13:00:00,82.5,70.4,29.97,NE,36,5.0,6.0,67,0.00,,,0.00,Wunderground v.1.15,2013-08-06 23:00:00,
2013-08-06 13:05:00,82.4,70.8,29.97,NE,46,6.0,9.0,68,0.00,,,0.00,Wunderground v.1.15,2013-08-06 23:05:00,
2013-08-06 13:15:00,82.2,71.0,29.97,ENE,76,5.0,6.0,69,0.00,,,0.00,Wunderground v.1.15,2013-08-06 23:15:00,
2013-08-06 13:25:00,82.4,71.2,29.97,ENE,76,5.0,11.0,69,0.00,,,0.00,Wunderground v.1.15,2013-08-06 23:25:00,
2013-08-06 13:35:00,83.0,71.3,29.97,ESE,107,6.0,6.0,68,0.00,,,0.00,Wunderground v.1.15,2013-08-06 23:35:00,
2013-08-06 13:45:00,82.1,70.1,29.97,East,86,6.0,12.0,67,0.00,,,0.00,Wunderground v.1.15,2013-08-06 23:45:00,
2013-08-06 13:50:00,82.3,70.2,29.97,East,91,6.0,9.0,67,0.00,,,0.00,Wunderground v.1.15,2013-08-06 23:50:00,
2013-08-06 13:55:00,82.6,69.6,29.97,NE,54,6.0,9.0,65,0.00,,,0.00,Wunderground v.1.15,2013-08-06 23:55:00,
2013-08-06 14:05:00,83.0,69.1,29.97,NE,37,5.0,9.0,63,0.00,,,0.00,Wunderground v.1.15,2013-08-07 00:05:00,
2013-08-06 14:15:00,83.1,69.7,29.96,ESE,105,6.0,13.0,64,0.00,,,0.00,Wunderground v.1.15,2013-08-07 00:15:00,
2013-08-06 14:20:00,82.4,68.1,29.96,ENE,76,7.0,7.0,62,0.00,,,0.00,Wunderground v.1.15,2013-08-07 00:20:00,
2013-08-06 14:30:00,82.3,69.8,29.96,NE,50,6.0,7.0,66,0.00,,,0.00,Wunderground v.1.15,2013-08-07 00:30:00,
2013-08-06 14:40:00,82.8,69.8,29.95,East,80,5.0,8.0,65,0.00,,,0.00,Wunderground v.1.15,2013-08-07 00:40:00,
2013-08-06 14:50:00,82.6,68.7,29.95,East,85,6.0,6.0,63,0.00,,,0.00,Wunderground v.1.15,2013-08-07 00:50:00,
2013-08-06 15:00:00,82.9,68.5,29.94,ESE,105,6.0,7.0,62,0.00,,,0.00,Wunderground v.1.15,2013-08-07 01:00:00,
2013-08-06 15:05:00,82.9,69.5,29.94,East,79,6.0,7.0,64,0.00,,,0.00,Wunderground v.1.15,2013-08-07 01:05:00,
2013-08-06 15:15:00,82.3,70.2,29.94,NE,53,5.0,5.0,67,0.00,,,0.00,Wunderground v.1.15,2013-08-07 01:15:00,
2013-08-06 15:25:00,83.0,70.5,29.94,ENE,59,5.0,11.0,66,0.00,,,0.00,Wunderground v.1.15,2013-08-07 01:25:00,
2013-08-06 15:35:00,82.6,69.2,29.94,NE,56,6.0,7.0,64,0.00,,,0.00,Wunderground v.1.15,2013-08-07 01:35:00,
2013-08-06 15:45:00,82.4,69.9,29.94,ENE,59,5.0,6.0,66,0.00,,,0.00,Wunderground v.1.15,2013-08-07 01:45:00,
2013-08-06 15:50:00,82.5,69.5,29.95,East,98,5.0,5.0,65,0.00,,,0.00,Wunderground v.1.15,2013-08-07 01:50:00,
2013-08-06 16:00:00,81.9,69.4,29.95,East,88,6.0,9.0,66,0.00,,,0.00,Wunderground v.1.15,2013-08-07 02:00:00,
2013-08-06 16:05:00,81.9,68.5,29.95,ESE,117,7.0,11.0,64,0.00,,,0.00,Wunderground v.1.15,2013-08-07 02:05:00,
2013-08-06 16:15:00,81.8,68.9,29.95,SE,129,5.0,6.0,65,0.00,,,0.00,Wunderground v.1.15,2013-08-07 02:15:00,
2013-08-06 16:25:00,81.0,69.0,29.95,ENE,76,6.0,9.0,67,0.00,,,0.00,Wunderground v.1.15,2013-08-07 02:25:00,
2013-08-06 16:35:00,81.2,69.6,29.95,ENE,67,5.0,7.0,68,0.00,,,0.00,Wunderground v.1.15,2013-08-07 02:35:00,
2013-08-06 16:45:00,80.7,69.2,29.95,East,84,6.0,6.0,68,0.00,,,0.00,Wunderground v.1.15,2013-08-07 02:45:00,
2013-08-06 16:55:00,80.9,68.9,29.94,ENE,61,4.0,5.0,67,0.00,,,0.00,Wunderground v.1.15,2013-08-07 02:55:00,
2013-08-06 17:05:00,80.7,70.0,29.94,ESE,102,5.0,11.0,70,0.00,,,0.00,Wunderground v.1.15,2013-08-07 03:05:00,
2013-08-06 17:15:00,80.6,69.5,29.94,NE,36,6.0,6.0,69,0.00,,,0.00,Wunderground v.1.15,2013-08-07 03:15:00,
2013-08-06 17:25:00,80.5,69.8,29.95,East,94,5.0,6.0,70,0.00,,,0.00,Wunderground v.1.15,2013-08-07 03:25:00,
2013-08-06 17:30:00,79.9,69.2,29.94,East,96,5.0,11.0,70,0.00,,,0.00,Wunderground v.1.15,2013-08-07 03:30:00,
2013-08-06 17:40:00,79.8,68.7,29.94,East,90,5.0,5.0,69,0.00,,,0.00,Wunderground v.1.15,2013-08-07 03:40:00,
2013-08-06 17:50:00,79.6,69.4,29.95,ESE,107,5.0,7.0,71,0.00,,,0.00,Wunderground v.1.15,2013-08-07 03:50:00,
2013-08-06 18:00:00,78.9,69.1,29.95,East,92,6.0,15.0,72,0.00,,,0.00,Wunderground v.1.15,2013-08-07 04:00:00,
2013-08-06 18:05:00,78.9,68.7,29.95,East,81,6.0,15.0,71,0.00,,,0.00,Wunderground v.1.15,2013-08-07 04:05:00,
2013-08-06 18:15:00,78.4,68.6,29.96,East,87,5.0,6.0,72,0.00,,,0.00,Wunderground v.1.15,2013-08-07 04:15:00,
2013-08-06 18:25:00,78.2,68.8,29.97,ESE,123,5.0,9.0,73,0.00,,,0.00,Wunderground v.1.15,2013-08-07 04:25:00,
2013-08-06 18:30:00,78.0,69.0,29.96,East,92,5.0,9.0,74,0.00,,,0.00,Wunderground v.1.15,2013-08-07 04:30:00,
2013-08-06 18:40:00,77.6,68.7,29.97,ENE,69,5.0,5.0,74,0.00,,,0.00,Wunderground v.1.15,2013-08-07 04:40:00,
2013-08-06 18:45:00,77.4,68.5,29.98,East,94,3.0,6.0,74,0.00,,,0.00,Wunderground v.1.15,2013-08-07 04:45:00,
2013-08-06 18:50:00,77.2,68.7,29.97,ESE,108,4.0,4.0,75,0.00,,,0.00,Wunderground v.1.15,2013-08-07 04:50:00,
2013-08-06 19:00:00,76.9,68.4,29.98,ESE,106,3.0,6.0,75,0.00,,,0.00,Wunderground v.1.15,2013-08-07 05:00:00,
2013-08-06 19:05:00,76.7,68.2,29.98,East,89,3.0,6.0,75,0.00,,,0.00,Wunderground v.1.15,2013-08-07 05:05:00,
2013-08-06 19:15:00,76.6,68.5,29.98,ENE,76,4.0,4.0,76,0.00,,,0.00,Wunderground v.1.15,2013-08-07 05:15:00,
2013-08-06 19:25:00,76.4,68.3,29.99,ESE,106,3.0,5.0,76,0.00,,,0.00,Wunderground v.1.15,2013-08-07 05:25:00,
2013-08-06 19:35:00,76.2,68.1,29.99,East,88,3.0,3.0,76,0.00,,,0.00,Wunderground v.1.15,2013-08-07 05:35:00,
2013-08-06 19:45:00,76.1,68.0,29.99,East,92,3.0,9.0,76,0.00,,,0.00,Wunderground v.1.15,2013-08-07 05:45:00,
2013-08-06 19:55:00,76.1,68.0,29.99,East,98,5.0,9.0,76,0.00,,,0.00,Wunderground v.1.15,2013-08-07 05:55:00,
2013-08-06 20:05:00,76.1,68.4,30.00,East,85,2.0,6.0,77,0.00,,,0.00,Wunderground v.1.15,2013-08-07 06:05:00,
2013-08-06 20:15:00,76.0,68.6,29.99,East,87,4.0,8.0,78,0.00,,,0.00,Wunderground v.1.15,2013-08-07 06:15:00,
2013-08-06 20:25:00,75.8,68.8,30.00,East,98,3.0,3.0,79,0.00,,,0.00,Wunderground v.1.15,2013-08-07 06:25:00,
2013-08-06 20:35:00,75.6,69.0,29.99,East,96,2.0,4.0,80,0.00,,,0.00,Wunderground v.1.15,2013-08-07 06:35:00,
2013-08-06 20:45:00,75.5,68.9,30.00,East,99,2.0,11.0,80,0.00,,,0.00,Wunderground v.1.15,2013-08-07 06:45:00,
2013-08-06 20:50:00,75.5,68.9,30.00,East,100,3.0,3.0,80,0.00,,,0.00,Wunderground v.1.15,2013-08-07 06:50:00,
2013-08-06 21:00:00,75.5,68.5,30.00,ESE,103,3.0,3.0,79,0.00,,,0.00,Wunderground v.1.15,2013-08-07 07:00:00,
2013-08-06 21:05:00,75.5,68.5,30.00,East,84,4.0,6.0,79,0.00,,,0.00,Wunderground v.1.15,2013-08-07 07:05:00,
2013-08-06 21:15:00,75.5,68.9,30.00,East,90,3.0,3.0,80,0.00,,,0.00,Wunderground v.1.15,2013-08-07 07:15:00,
2013-08-06 21:25:00,75.5,68.9,30.01,ENE,77,3.0,3.0,80,0.00,,,0.00,Wunderground v.1.15,2013-08-07 07:25:00,
2013-08-06 21:30:00,75.5,68.9,30.01,East,80,3.0,3.0,80,0.00,,,0.00,Wunderground v.1.15,2013-08-07 07:30:00,
2013-08-06 21:40:00,75.3,68.7,30.01,East,97,3.0,3.0,80,0.00,,,0.00,Wunderground v.1.15,2013-08-07 07:40:00,
2013-08-06 21:50:00,75.3,68.7,30.01,East,96,2.0,3.0,80,0.00,,,0.00,Wunderground v.1.15,2013-08-07 07:50:00,
2013-08-06 22:00:00,75.3,68.7,30.01,East,94,3.0,3.0,80,0.00,,,0.00,Wunderground v.1.15,2013-08-07 08:00:00,
2013-08-06 22:05:00,75.4,68.4,30.01,East,96,3.0,3.0,79,0.00,,,0.00,Wunderground v.1.15,2013-08-07 08:05:00,
2013-08-06 22:15:00,75.4,68.4,30.01,ESE,109,3.0,4.0,79,0.00,,,0.00,Wunderground v.1.15,2013-08-07 08:15:00,
2013-08-06 22:25:00,75.3,68.3,30.01,East,99,2.0,3.0,79,0.00,,,0.00,Wunderground v.1.15,2013-08-07 08:25:00,
2013-08-06 22:35:00,75.3,68.0,30.01,ESE,105,5.0,5.0,78,0.00,,,0.00,Wunderground v.1.15,2013-08-07 08:35:00,
2013-08-06 22:45:00,75.1,67.8,30.01,ESE,105,2.0,4.0,78,0.00,,,0.00,Wunderground v.1.15,2013-08-07 08:45:00,
2013-08-06 22:55:00,74.9,67.9,30.01,ESE,106,2.0,2.0,79,0.00,,,0.00,Wunderground v.1.15,2013-08-07 08:55:00,
2013-08-06 23:05:00,74.8,67.8,30.01,ESE,106,2.0,2.0,79,0.00,,,0.00,Wunderground v.1.15,2013-08-07 09:05:00,
2013-08-06 23:15:00,74.6,68.0,30.01,ESE,106,1.0,2.0,80,0.00,,,0.00,Wunderground v.1.15,2013-08-07 09:15:00,
2013-08-06 23:25:00,74.3,68.1,30.01,ESE,106,1.0,2.0,81,0.00,,,0.00,Wunderground v.1.15,2013-08-07 09:25:00,
2013-08-06 23:35:00,74.1,67.9,30.01,ESE,105,2.0,2.0,81,0.00,,,0.00,Wunderground v.1.15,2013-08-07 09:35:00,
2013-08-06 23:40:00,74.0,68.2,30.00,ESE,105,1.0,1.0,82,0.00,,,0.00,Wunderground v.1.15,2013-08-07 09:40:00,
2013-08-06 23:45:00,74.0,68.2,30.00,ESE,105,0.0,1.0,82,0.00,,,0.00,Wunderground v.1.15,2013-08-07 09:45:00,
2013-08-06 23:55:00,74.1,68.3,30.00,ESE,105,2.0,4.0,82,0.00,,,0.00,Wunderground v.1.15,2013-08-07 09:55:00,